sensor_id;sensor_type;location;lat;lon;timestamp;pressure;altitude;pressure_sealevel;temperature;humidity
39949;BME280;29070;48.102;-1.652;2023-03-18T00:02:53;100266.88;;;11.47;73.58
39949;BME280;29070;48.102;-1.652;2023-03-18T00:07:54;100266.25;;;11.44;73.82
39949;BME280;29070;48.102;-1.652;2023-03-18T00:12:54;100255.16;;;11.42;73.84
39949;BME280;29070;48.102;-1.652;2023-03-18T00:17:56;100262.44;;;11.40;73.87
39949;BME280;29070;48.102;-1.652;2023-03-18T00:22:58;100257.38;;;11.39;74.12
39949;BME280;29070;48.102;-1.652;2023-03-18T00:27:59;100273.38;;;11.37;74.29
39949;BME280;29070;48.102;-1.652;2023-03-18T00:32:59;100258.03;;;11.34;74.31
39949;BME280;29070;48.102;-1.652;2023-03-18T00:38:00;100243.09;;;11.28;74.50
39949;BME280;29070;48.102;-1.652;2023-03-18T00:43:02;100238.28;;;11.25;74.72
39949;BME280;29070;48.102;-1.652;2023-03-18T00:48:07;100233.44;;;11.22;74.88
39949;BME280;29070;48.102;-1.652;2023-03-18T00:53:07;100230.06;;;11.15;74.90
39949;BME280;29070;48.102;-1.652;2023-03-18T00:58:09;100223.63;;;11.11;75.18
39949;BME280;29070;48.102;-1.652;2023-03-18T01:03:10;100226.66;;;11.07;75.30
39949;BME280;29070;48.102;-1.652;2023-03-18T01:08:10;100214.53;;;11.06;75.49
39949;BME280;29070;48.102;-1.652;2023-03-18T01:13:11;100215.34;;;11.07;75.49
39949;BME280;29070;48.102;-1.652;2023-03-18T01:18:11;100204.44;;;11.03;75.42
39949;BME280;29070;48.102;-1.652;2023-03-18T01:23:12;100195.59;;;10.98;75.92
39949;BME280;29070;48.102;-1.652;2023-03-18T01:28:13;100174.41;;;10.93;75.87
39949;BME280;29070;48.102;-1.652;2023-03-18T01:33:13;100172.44;;;10.88;75.91
39949;BME280;29070;48.102;-1.652;2023-03-18T01:38:14;100167.00;;;10.83;76.17
39949;BME280;29070;48.102;-1.652;2023-03-18T01:43:24;100148.81;;;10.81;76.33
39949;BME280;29070;48.102;-1.652;2023-03-18T01:48:29;100147.66;;;10.77;76.64
39949;BME280;29070;48.102;-1.652;2023-03-18T01:53:41;100129.88;;;10.73;76.95
39949;BME280;29070;48.102;-1.652;2023-03-18T01:58:48;100130.91;;;10.72;76.70
39949;BME280;29070;48.102;-1.652;2023-03-18T02:03:49;100139.19;;;10.68;77.13
39949;BME280;29070;48.102;-1.652;2023-03-18T02:08:50;100140.44;;;10.66;77.44
39949;BME280;29070;48.102;-1.652;2023-03-18T02:13:51;100129.72;;;10.67;77.51
39949;BME280;29070;48.102;-1.652;2023-03-18T02:18:54;100134.53;;;10.71;77.63
39949;BME280;29070;48.102;-1.652;2023-03-18T02:29:17;100118.63;;;10.65;78.40
39949;BME280;29070;48.102;-1.652;2023-03-18T02:34:18;100108.94;;;10.66;78.23
39949;BME280;29070;48.102;-1.652;2023-03-18T02:39:20;100095.59;;;10.67;78.36
39949;BME280;29070;48.102;-1.652;2023-03-18T02:44:21;100091.97;;;10.68;78.58
39949;BME280;29070;48.102;-1.652;2023-03-18T02:49:23;100089.91;;;10.71;78.51
39949;BME280;29070;48.102;-1.652;2023-03-18T02:54:28;100074.81;;;10.66;79.07
39949;BME280;29070;48.102;-1.652;2023-03-18T02:59:29;100079.84;;;10.67;78.99
39949;BME280;29070;48.102;-1.652;2023-03-18T03:04:31;100078.25;;;10.66;79.09
39949;BME280;29070;48.102;-1.652;2023-03-18T03:09:32;100070.97;;;10.68;79.42
39949;BME280;29070;48.102;-1.652;2023-03-18T03:14:32;100066.09;;;10.72;79.42
39949;BME280;29070;48.102;-1.652;2023-03-18T03:19:32;100071.72;;;10.76;79.29
39949;BME280;29070;48.102;-1.652;2023-03-18T03:24:33;100074.34;;;10.76;79.67
39949;BME280;29070;48.102;-1.652;2023-03-18T03:29:33;100090.69;;;10.78;79.86
39949;BME280;29070;48.102;-1.652;2023-03-18T03:34:33;100087.66;;;10.81;80.20
39949;BME280;29070;48.102;-1.652;2023-03-18T03:39:34;100086.84;;;10.80;80.58
39949;BME280;29070;48.102;-1.652;2023-03-18T03:44:34;100091.44;;;10.85;80.71
39949;BME280;29070;48.102;-1.652;2023-03-18T03:49:35;100105.13;;;10.94;80.67
39949;BME280;29070;48.102;-1.652;2023-03-18T03:54:35;100118.63;;;10.97;81.05
39949;BME280;29070;48.102;-1.652;2023-03-18T03:59:37;100131.16;;;11.02;80.75
39949;BME280;29070;48.102;-1.652;2023-03-18T04:04:37;100138.19;;;11.01;81.03
39949;BME280;29070;48.102;-1.652;2023-03-18T04:09:37;100150.31;;;11.02;80.92
39949;BME280;29070;48.102;-1.652;2023-03-18T04:14:38;100149.47;;;11.09;80.72
39949;BME280;29070;48.102;-1.652;2023-03-18T04:19:39;100159.94;;;11.15;80.59
39949;BME280;29070;48.102;-1.652;2023-03-18T04:24:39;100161.56;;;11.16;81.11
39949;BME280;29070;48.102;-1.652;2023-03-18T04:29:40;100163.97;;;11.18;81.15
39949;BME280;29070;48.102;-1.652;2023-03-18T04:34:40;100161.94;;;11.20;81.12
39949;BME280;29070;48.102;-1.652;2023-03-18T04:39:41;100164.78;;;11.18;81.52
39949;BME280;29070;48.102;-1.652;2023-03-18T04:44:41;100165.16;;;11.22;81.48
39949;BME280;29070;48.102;-1.652;2023-03-18T04:49:41;100162.69;;;11.27;81.50
39949;BME280;29070;48.102;-1.652;2023-03-18T04:54:42;100169.13;;;11.31;81.52
39949;BME280;29070;48.102;-1.652;2023-03-18T04:59:43;100163.06;;;11.31;81.95
39949;BME280;29070;48.102;-1.652;2023-03-18T05:04:44;100171.91;;;11.36;81.80
39949;BME280;29070;48.102;-1.652;2023-03-18T05:09:44;100167.09;;;11.33;81.94
39949;BME280;29070;48.102;-1.652;2023-03-18T05:14:45;100169.72;;;11.33;82.23
39949;BME280;29070;48.102;-1.652;2023-03-18T05:19:46;100166.66;;;11.36;82.06
39949;BME280;29070;48.102;-1.652;2023-03-18T05:24:47;100162.22;;;11.37;82.16
39949;BME280;29070;48.102;-1.652;2023-03-18T05:29:48;100174.94;;;11.40;82.14
39949;BME280;29070;48.102;-1.652;2023-03-18T05:34:49;100174.94;;;11.40;82.23
39949;BME280;29070;48.102;-1.652;2023-03-18T05:39:49;100178.34;;;11.40;82.28
39949;BME280;29070;48.102;-1.652;2023-03-18T05:44:50;100178.56;;;11.39;81.93
39949;BME280;29070;48.102;-1.652;2023-03-18T05:49:50;100177.19;;;11.36;82.34
39949;BME280;29070;48.102;-1.652;2023-03-18T05:54:50;100175.19;;;11.32;82.54
39949;BME280;29070;48.102;-1.652;2023-03-18T05:59:51;100176.00;;;11.32;82.49
39949;BME280;29070;48.102;-1.652;2023-03-18T06:04:51;100182.25;;;11.31;82.50
39949;BME280;29070;48.102;-1.652;2023-03-18T06:09:51;100185.91;;;11.30;82.52
39949;BME280;29070;48.102;-1.652;2023-03-18T06:14:53;100186.94;;;11.29;82.33
39949;BME280;29070;48.102;-1.652;2023-03-18T06:19:53;100192.97;;;11.30;82.46
39949;BME280;29070;48.102;-1.652;2023-03-18T06:24:53;100196.41;;;11.30;82.55
39949;BME280;29070;48.102;-1.652;2023-03-18T06:29:54;100195.41;;;11.31;82.82
39949;BME280;29070;48.102;-1.652;2023-03-18T06:34:55;100205.91;;;11.31;82.72
39949;BME280;29070;48.102;-1.652;2023-03-18T06:39:55;100205.91;;;11.31;82.71
39949;BME280;29070;48.102;-1.652;2023-03-18T06:44:56;100207.53;;;11.32;82.96
39949;BME280;29070;48.102;-1.652;2023-03-18T06:49:56;100213.59;;;11.33;83.05
39949;BME280;29070;48.102;-1.652;2023-03-18T06:54:57;100230.31;;;11.38;83.18
39949;BME280;29070;48.102;-1.652;2023-03-18T06:59:57;100224.84;;;11.40;83.06
39949;BME280;29070;48.102;-1.652;2023-03-18T07:04:58;100224.84;;;11.40;83.30
39949;BME280;29070;48.102;-1.652;2023-03-18T07:09:59;100242.22;;;11.41;83.35
39949;BME280;29070;48.102;-1.652;2023-03-18T07:14:59;100241.25;;;11.35;83.20
39949;BME280;29070;48.102;-1.652;2023-03-18T07:20:00;100239.19;;;11.37;83.21
39949;BME280;29070;48.102;-1.652;2023-03-18T07:25:00;100249.88;;;11.42;83.28
39949;BME280;29070;48.102;-1.652;2023-03-18T07:30:01;100253.09;;;11.44;83.26
39949;BME280;29070;48.102;-1.652;2023-03-18T07:35:03;100253.94;;;11.45;83.29
39949;BME280;29070;48.102;-1.652;2023-03-18T07:40:05;100259.78;;;11.47;83.55
39949;BME280;29070;48.102;-1.652;2023-03-18T07:45:06;100277.53;;;11.52;83.41
39949;BME280;29070;48.102;-1.652;2023-03-18T07:50:07;100276.31;;;11.54;83.59
39949;BME280;29070;48.102;-1.652;2023-03-18T07:55:08;100282.53;;;11.60;83.58
39949;BME280;29070;48.102;-1.652;2023-03-18T08:00:09;100289.84;;;11.58;84.09
39949;BME280;29070;48.102;-1.652;2023-03-18T08:05:10;100305.19;;;11.61;83.70
39949;BME280;29070;48.102;-1.652;2023-03-18T08:10:11;100304.72;;;11.71;83.82
39949;BME280;29070;48.102;-1.652;2023-03-18T08:15:12;100310.34;;;11.74;83.81
39949;BME280;29070;48.102;-1.652;2023-03-18T08:20:13;100313.16;;;11.79;83.79
39949;BME280;29070;48.102;-1.652;2023-03-18T08:25:14;100318.38;;;11.86;84.06
39949;BME280;29070;48.102;-1.652;2023-03-18T08:30:15;100329.22;;;11.96;84.11
39949;BME280;29070;48.102;-1.652;2023-03-18T08:35:15;100334.03;;;12.06;84.24
39949;BME280;29070;48.102;-1.652;2023-03-18T08:40:16;100331.41;;;12.06;84.18
39949;BME280;29070;48.102;-1.652;2023-03-18T08:45:17;100338.88;;;12.09;84.26
39949;BME280;29070;48.102;-1.652;2023-03-18T08:50:17;100347.34;;;12.11;84.27
39949;BME280;29070;48.102;-1.652;2023-03-18T08:55:17;100354.28;;;12.31;84.44
39949;BME280;29070;48.102;-1.652;2023-03-18T09:00:20;100362.75;;;12.58;84.94
39949;BME280;29070;48.102;-1.652;2023-03-18T09:05:21;100359.34;;;12.76;85.07
39949;BME280;29070;48.102;-1.652;2023-03-18T09:10:21;100359.94;;;12.78;84.61
39949;BME280;29070;48.102;-1.652;2023-03-18T09:15:22;100369.16;;;12.87;84.27
39949;BME280;29070;48.102;-1.652;2023-03-18T09:20:23;100363.59;;;12.95;84.25
39949;BME280;29070;48.102;-1.652;2023-03-18T09:25:23;100363.16;;;12.99;83.93
39949;BME280;29070;48.102;-1.652;2023-03-18T09:30:24;100369.44;;;12.97;83.99
39949;BME280;29070;48.102;-1.652;2023-03-18T09:35:25;100374.72;;;12.97;83.79
39949;BME280;29070;48.102;-1.652;2023-03-18T09:40:31;100381.88;;;12.90;83.17
39949;BME280;29070;48.102;-1.652;2023-03-18T09:45:36;100381.31;;;13.07;83.37
39949;BME280;29070;48.102;-1.652;2023-03-18T09:56:25;100397.09;;;13.07;83.09
39949;BME280;29070;48.102;-1.652;2023-03-18T10:01:26;100390.81;;;13.08;83.07
39949;BME280;29070;48.102;-1.652;2023-03-18T10:06:27;100404.75;;;13.15;83.32
39949;BME280;29070;48.102;-1.652;2023-03-18T10:16:31;100409.59;;;13.18;83.32
39949;BME280;29070;48.102;-1.652;2023-03-18T10:22:23;100409.13;;;13.58;84.22
39949;BME280;29070;48.102;-1.652;2023-03-18T10:27:46;100412.84;;;13.69;83.78
39949;BME280;29070;48.102;-1.652;2023-03-18T10:32:54;100424.53;;;13.91;83.89
39949;BME280;29070;48.102;-1.652;2023-03-18T10:38:15;100423.97;;;14.01;83.43
39949;BME280;29070;48.102;-1.652;2023-03-18T10:43:20;100425.94;;;14.06;82.99
39949;BME280;29070;48.102;-1.652;2023-03-18T10:48:28;100430.66;;;14.16;83.00
39949;BME280;29070;48.102;-1.652;2023-03-18T10:53:38;100434.81;;;14.11;82.76
39949;BME280;29070;48.102;-1.652;2023-03-18T10:58:40;100433.63;;;14.07;82.37
39949;BME280;29070;48.102;-1.652;2023-03-18T11:03:45;100436.72;;;14.04;82.13
39949;BME280;29070;48.102;-1.652;2023-03-18T11:08:47;100425.25;;;14.10;82.64
39949;BME280;29070;48.102;-1.652;2023-03-18T11:13:49;100425.78;;;14.43;83.62
39949;BME280;29070;48.102;-1.652;2023-03-18T11:18:52;100437.09;;;14.85;84.01
39949;BME280;29070;48.102;-1.652;2023-03-18T11:23:55;100429.63;;;15.06;83.19
39949;BME280;29070;48.102;-1.652;2023-03-18T11:29:14;100433.41;;;14.98;81.95
39949;BME280;29070;48.102;-1.652;2023-03-18T11:34:17;100422.00;;;15.21;81.86
39949;BME280;29070;48.102;-1.652;2023-03-18T11:39:22;100433.25;;;15.29;81.55
39949;BME280;29070;48.102;-1.652;2023-03-18T11:44:28;100447.31;;;15.05;80.75
39949;BME280;29070;48.102;-1.652;2023-03-18T11:49:30;100457.44;;;14.85;80.49
39949;BME280;29070;48.102;-1.652;2023-03-18T12:10:41;100463.41;;;14.68;80.28
39949;BME280;29070;48.102;-1.652;2023-03-18T12:20:54;100464.72;;;14.47;80.09
39949;BME280;29070;48.102;-1.652;2023-03-18T12:26:02;100471.91;;;14.71;80.51
39949;BME280;29070;48.102;-1.652;2023-03-18T12:31:23;100465.47;;;15.02;80.78
39949;BME280;29070;48.102;-1.652;2023-03-18T12:42:26;100458.81;;;15.11;79.90
39949;BME280;29070;48.102;-1.652;2023-03-18T12:47:15;100461.06;;;15.43;80.22
39949;BME280;29070;48.102;-1.652;2023-03-18T12:52:36;100445.78;;;15.86;80.18
39949;BME280;29070;48.102;-1.652;2023-03-18T12:57:53;100454.44;;;16.10;78.93
39949;BME280;29070;48.102;-1.652;2023-03-18T13:19:28;100449.41;;;16.42;76.80
39949;BME280;29070;48.102;-1.652;2023-03-18T13:24:38;100453.34;;;16.23;76.46
39949;BME280;29070;48.102;-1.652;2023-03-18T13:46:00;100450.19;;;17.32;75.52
39949;BME280;29070;48.102;-1.652;2023-03-18T14:01:49;100451.22;;;17.09;72.21
39949;BME280;29070;48.102;-1.652;2023-03-18T14:07:14;100438.09;;;17.20;71.39
39949;BME280;29070;48.102;-1.652;2023-03-18T14:12:17;100436.56;;;17.46;72.30
39949;BME280;29070;48.102;-1.652;2023-03-18T14:22:38;100446.41;;;17.95;71.21
39949;BME280;29070;48.102;-1.652;2023-03-18T14:27:51;100452.41;;;18.12;70.16
39949;BME280;29070;48.102;-1.652;2023-03-18T14:33:01;100452.91;;;18.09;67.48
39949;BME280;29070;48.102;-1.652;2023-03-18T14:38:10;100448.38;;;17.82;68.10
39949;BME280;29070;48.102;-1.652;2023-03-18T14:43:21;100442.09;;;17.88;68.64
39949;BME280;29070;48.102;-1.652;2023-03-18T14:48:31;100455.19;;;17.73;67.82
39949;BME280;29070;48.102;-1.652;2023-03-18T14:58:52;100451.25;;;17.53;67.80
39949;BME280;29070;48.102;-1.652;2023-03-18T15:03:53;100458.34;;;17.48;67.20
39949;BME280;29070;48.102;-1.652;2023-03-18T15:14:00;100467.28;;;17.64;66.55
39949;BME280;29070;48.102;-1.652;2023-03-18T15:19:01;100465.84;;;17.56;65.62
39949;BME280;29070;48.102;-1.652;2023-03-18T15:24:05;100474.31;;;17.31;64.96
39949;BME280;29070;48.102;-1.652;2023-03-18T15:29:31;100470.47;;;17.22;64.62
39949;BME280;29070;48.102;-1.652;2023-03-18T15:34:44;100474.19;;;17.21;64.56
39949;BME280;29070;48.102;-1.652;2023-03-18T15:39:46;100475.78;;;17.22;64.66
39949;BME280;29070;48.102;-1.652;2023-03-18T15:45:00;100470.47;;;17.22;63.36
39949;BME280;29070;48.102;-1.652;2023-03-18T15:55:25;100488.03;;;17.06;61.99
39949;BME280;29070;48.102;-1.652;2023-03-18T16:00:27;100494.88;;;17.02;64.10
39949;BME280;29070;48.102;-1.652;2023-03-18T16:05:29;100504.88;;;16.83;63.80
39949;BME280;29070;48.102;-1.652;2023-03-18T16:10:29;100513.72;;;16.71;63.99
39949;BME280;29070;48.102;-1.652;2023-03-18T16:15:31;100513.56;;;16.61;64.01
39949;BME280;29070;48.102;-1.652;2023-03-18T16:20:32;100526.66;;;16.68;64.17
39949;BME280;29070;48.102;-1.652;2023-03-18T16:25:33;100523.84;;;16.57;64.05
39949;BME280;29070;48.102;-1.652;2023-03-18T16:30:33;100537.81;;;16.53;64.04
39949;BME280;29070;48.102;-1.652;2023-03-18T16:35:35;100542.28;;;16.35;64.00
39949;BME280;29070;48.102;-1.652;2023-03-18T16:40:37;100555.22;;;16.20;64.30
39949;BME280;29070;48.102;-1.652;2023-03-18T16:45:37;100562.41;;;16.08;64.28
39949;BME280;29070;48.102;-1.652;2023-03-18T16:50:39;100571.47;;;15.83;64.18
39949;BME280;29070;48.102;-1.652;2023-03-18T16:55:40;100568.13;;;15.64;64.46
39949;BME280;29070;48.102;-1.652;2023-03-18T17:00:40;100575.25;;;15.63;64.38
39949;BME280;29070;48.102;-1.652;2023-03-18T17:05:47;100588.00;;;15.67;64.64
39949;BME280;29070;48.102;-1.652;2023-03-18T17:10:54;100594.13;;;15.43;64.77
39949;BME280;29070;48.102;-1.652;2023-03-18T17:15:56;100609.88;;;15.27;64.90
39949;BME280;29070;48.102;-1.652;2023-03-18T17:20:56;100620.31;;;15.21;65.07
39949;BME280;29070;48.102;-1.652;2023-03-18T17:25:59;100614.31;;;15.02;65.87
39949;BME280;29070;48.102;-1.652;2023-03-18T17:30:59;100627.41;;;14.97;65.84
39949;BME280;29070;48.102;-1.652;2023-03-18T17:36:00;100641.41;;;14.98;65.99
39949;BME280;29070;48.102;-1.652;2023-03-18T17:41:03;100644.72;;;14.81;66.51
39949;BME280;29070;48.102;-1.652;2023-03-18T17:46:05;100641.72;;;14.59;67.07
39949;BME280;29070;48.102;-1.652;2023-03-18T17:51:11;100655.44;;;14.68;67.76
39949;BME280;29070;48.102;-1.652;2023-03-18T17:56:15;100660.28;;;14.71;67.64
39949;BME280;29070;48.102;-1.652;2023-03-18T18:01:19;100664.84;;;14.64;68.04
39949;BME280;29070;48.102;-1.652;2023-03-18T18:06:23;100674.31;;;14.53;68.35
39949;BME280;29070;48.102;-1.652;2023-03-18T18:11:30;100683.91;;;14.47;68.72
39949;BME280;29070;48.102;-1.652;2023-03-18T18:16:31;100689.34;;;14.34;69.00
39949;BME280;29070;48.102;-1.652;2023-03-18T18:21:31;100693.47;;;14.30;69.24
39949;BME280;29070;48.102;-1.652;2023-03-18T18:26:32;100696.63;;;14.20;69.26
39949;BME280;29070;48.102;-1.652;2023-03-18T18:31:32;100706.34;;;14.20;69.47
39949;BME280;29070;48.102;-1.652;2023-03-18T18:36:34;100714.13;;;14.15;69.66
39949;BME280;29070;48.102;-1.652;2023-03-18T18:41:36;100712.94;;;14.10;70.07
39949;BME280;29070;48.102;-1.652;2023-03-18T18:46:36;100725.69;;;13.95;70.71
39949;BME280;29070;48.102;-1.652;2023-03-18T18:51:37;100729.34;;;13.94;70.73
39949;BME280;29070;48.102;-1.652;2023-03-18T18:56:37;100738.13;;;13.88;71.33
39949;BME280;29070;48.102;-1.652;2023-03-18T19:01:37;100739.28;;;13.73;72.14
39949;BME280;29070;48.102;-1.652;2023-03-18T19:06:38;100750.25;;;13.70;72.11
39949;BME280;29070;48.102;-1.652;2023-03-18T19:11:38;100759.69;;;13.53;72.96
39949;BME280;29070;48.102;-1.652;2023-03-18T19:16:38;100776.81;;;13.44;73.10
39949;BME280;29070;48.102;-1.652;2023-03-18T19:21:39;100782.50;;;13.41;73.01
39949;BME280;29070;48.102;-1.652;2023-03-18T19:26:39;100798.34;;;13.34;73.22
39949;BME280;29070;48.102;-1.652;2023-03-18T19:31:40;100809.72;;;13.28;73.61
39949;BME280;29070;48.102;-1.652;2023-03-18T19:36:41;100817.03;;;13.26;73.69
39949;BME280;29070;48.102;-1.652;2023-03-18T19:41:42;100821.06;;;13.28;73.76
39949;BME280;29070;48.102;-1.652;2023-03-18T19:46:43;100829.81;;;13.22;73.74
39949;BME280;29070;48.102;-1.652;2023-03-18T19:51:45;100840.97;;;13.18;73.55
39949;BME280;29070;48.102;-1.652;2023-03-18T19:56:46;100863.50;;;13.13;73.95
39949;BME280;29070;48.102;-1.652;2023-03-18T20:01:47;100879.91;;;13.09;74.25
39949;BME280;29070;48.102;-1.652;2023-03-18T20:06:47;100888.88;;;12.94;74.38
39949;BME280;29070;48.102;-1.652;2023-03-18T20:11:50;100892.75;;;12.78;74.61
39949;BME280;29070;48.102;-1.652;2023-03-18T20:16:54;100899.28;;;12.63;75.00
39949;BME280;29070;48.102;-1.652;2023-03-18T20:21:55;100911.22;;;12.58;75.22
39949;BME280;29070;48.102;-1.652;2023-03-18T20:26:55;100911.22;;;12.52;75.21
39949;BME280;29070;48.102;-1.652;2023-03-18T20:31:55;100918.94;;;12.47;75.26
39949;BME280;29070;48.102;-1.652;2023-03-18T20:36:58;100930.47;;;12.46;75.29
39949;BME280;29070;48.102;-1.652;2023-03-18T20:41:59;100945.25;;;12.40;75.22
39949;BME280;29070;48.102;-1.652;2023-03-18T20:46:59;100963.03;;;12.31;75.19
39949;BME280;29070;48.102;-1.652;2023-03-18T20:52:00;100984.88;;;12.18;75.48
39949;BME280;29070;48.102;-1.652;2023-03-18T20:57:01;100992.72;;;12.05;75.42
39949;BME280;29070;48.102;-1.652;2023-03-18T21:02:02;101006.31;;;12.02;75.47
39949;BME280;29070;48.102;-1.652;2023-03-18T21:07:02;101009.84;;;11.88;75.50
39949;BME280;29070;48.102;-1.652;2023-03-18T21:12:03;101021.53;;;11.78;75.69
39949;BME280;29070;48.102;-1.652;2023-03-18T21:17:03;101022.78;;;11.82;75.70
39949;BME280;29070;48.102;-1.652;2023-03-18T21:22:03;101030.25;;;11.79;75.79
39949;BME280;29070;48.102;-1.652;2023-03-18T21:27:04;101035.63;;;11.64;76.00
39949;BME280;29070;48.102;-1.652;2023-03-18T21:32:04;101026.50;;;11.60;76.03
39949;BME280;29070;48.102;-1.652;2023-03-18T21:37:16;101035.94;;;11.48;76.12
39949;BME280;29070;48.102;-1.652;2023-03-18T21:42:19;101044.97;;;11.38;76.13
39949;BME280;29070;48.102;-1.652;2023-03-18T21:47:23;101037.03;;;11.32;76.23
39949;BME280;29070;48.102;-1.652;2023-03-18T21:52:35;101038.38;;;11.21;76.52
39949;BME280;29070;48.102;-1.652;2023-03-18T21:57:36;101050.66;;;11.14;76.36
39949;BME280;29070;48.102;-1.652;2023-03-18T22:02:36;101066.94;;;11.02;76.50
39949;BME280;29070;48.102;-1.652;2023-03-18T22:07:37;101053.94;;;10.94;76.74
39949;BME280;29070;48.102;-1.652;2023-03-18T22:12:37;101049.50;;;10.95;76.92
39949;BME280;29070;48.102;-1.652;2023-03-18T22:17:37;101056.94;;;10.91;76.80
39949;BME280;29070;48.102;-1.652;2023-03-18T22:22:38;101061.69;;;10.81;76.89
39949;BME280;29070;48.102;-1.652;2023-03-18T22:27:38;101074.22;;;10.79;76.89
39949;BME280;29070;48.102;-1.652;2023-03-18T22:32:41;101087.25;;;10.72;76.99
39949;BME280;29070;48.102;-1.652;2023-03-18T22:37:42;101096.56;;;10.75;77.14
39949;BME280;29070;48.102;-1.652;2023-03-18T22:42:44;101086.47;;;10.72;77.43
39949;BME280;29070;48.102;-1.652;2023-03-18T22:47:45;101096.34;;;10.70;77.48
39949;BME280;29070;48.102;-1.652;2023-03-18T22:52:47;101097.06;;;10.63;77.72
39949;BME280;29070;48.102;-1.652;2023-03-18T22:57:49;101101.94;;;10.66;77.61
39949;BME280;29070;48.102;-1.652;2023-03-18T23:02:50;101100.94;;;10.67;77.62
39949;BME280;29070;48.102;-1.652;2023-03-18T23:07:51;101110.81;;;10.65;77.48
39949;BME280;29070;48.102;-1.652;2023-03-18T23:12:51;101114.28;;;10.66;77.71
39949;BME280;29070;48.102;-1.652;2023-03-18T23:17:52;101106.56;;;10.64;77.67
39949;BME280;29070;48.102;-1.652;2023-03-18T23:22:52;101103.69;;;10.59;77.61
39949;BME280;29070;48.102;-1.652;2023-03-18T23:27:52;101119.91;;;10.48;77.60
39949;BME280;29070;48.102;-1.652;2023-03-18T23:32:53;101120.28;;;10.45;77.61
39949;BME280;29070;48.102;-1.652;2023-03-18T23:37:53;101129.91;;;10.38;77.40
39949;BME280;29070;48.102;-1.652;2023-03-18T23:42:53;101123.28;;;10.27;77.33
39949;BME280;29070;48.102;-1.652;2023-03-18T23:47:55;101118.09;;;10.19;77.27
39949;BME280;29070;48.102;-1.652;2023-03-18T23:52:55;101123.47;;;10.10;77.24
39949;BME280;29070;48.102;-1.652;2023-03-18T23:57:56;101126.34;;;10.01;77.16
